Latest Coastal Weather Observations for South Johnstone

IDQ60701

Issued at 1:51 pm EST Thursday 2 July 2015 (issued every 10 minutes, with the page automatically refreshed every 10 minutes)

About coastal observations | Map of coastal stations | Coastal observations for QLD | Marine services | Other Formats
Station Details ID: 032037 Name: SOUTH JOHNSTONE EXP STN Lat: -17.61 Lon: 146.00 Height: 18.3 m
Data from the previous 72 hours. | See also: Recent months at South Johnstone
Date/Time
EST
Temp

°C
Wind Pressure Rain
since 9am
mm
Weather Cloud Vis
km
Sea
Height
m
Swell
Dir
 
Speed
knots
Gust
knots
hPa Trend Height
m
Period
s
Dir
02/01:30pm 24.7 SE 7 12 1018.8 - 0.2 - - - - - - -
02/01:00pm 24.9 SSE 8 15 1019.4 - 0.2 - - - - - - -
02/12:30pm 25.0 SE 7 13 1020.0 - 0.2 - - - - - - -
02/12:00pm 24.7 SSE 7 11 1020.4 - 0.0 - - - - - - -
02/11:30am 24.3 S 7 15 1020.8 - 0.0 - - - - - - -
02/11:00am 23.0 S 6 10 1021.1 - 0.0 - - - - - - -
02/10:30am 22.9 SSE 7 11 1021.3 - 0.0 - - - - - - -
02/10:00am 23.2 S 6 11 1021.5 - 0.0 - - - - - - -
02/09:30am 22.2 SSW 6 8 1021.6 - 0.0 - - - - - - -
02/09:00am 20.8 WSW 4 6 1021.3 - 0.0 - - - - - - -
02/08:30am 19.1 W 2 5 1021.1 - 0.0 - - - - - - -
02/08:00am 17.3 WSW 6 7 1020.7 - 0.0 - - - - - - -
02/07:30am 16.6 WSW 6 7 1020.7 - 0.0 - - - - - - -
02/07:00am 16.2 W 4 7 1020.5 - 0.0 - - - - - - -
02/06:30am 16.3 W 5 7 1020.2 - 0.0 - - - - - - -
02/06:00am 16.1 W 4 7 1019.7 - 0.0 - - - - - - -
02/05:30am 16.2 WSW 5 8 1019.6 - 0.0 - - - - - - -
02/05:00am 16.1 W 5 7 1019.3 - 0.0 - - - - - - -
02/04:30am 16.1 W 6 8 1019.3 - 0.0 - - - - - - -
02/04:00am 16.2 WSW 6 7 1019.3 - 0.0 - - - - - - -
02/03:30am 16.3 WSW 6 7 1019.5 - 0.0 - - - - - - -
02/03:00am 16.3 WSW 5 7 1019.5 - 0.0 - - - - - - -
02/02:30am 16.5 WSW 6 8 1019.7 - 0.0 - - - - - - -
02/02:00am 16.6 WSW 6 8 1020.0 - 0.0 - - - - - - -
02/01:30am 16.7 W 4 7 1020.5 - 0.0 - - - - - - -
02/01:00am 16.8 W 5 8 1020.7 - 0.0 - - - - - - -
02/12:30am 17.0 W 6 8 1020.9 - 0.0 - - - - - - -
02/12:00am 17.1 W 5 7 1021.0 - 0.0 - - - - - - -
 
Date/Time
EST
Temp

°C
Wind Pressure Rain
since 9am
mm
Weather Cloud Vis
km
Sea
Height
m
Swell
Dir
 
Speed
knots
Gust
knots
hPa Trend Height
m
Period
s
Dir
01/11:30pm 17.2 WSW 5 7 1021.3 - 0.0 - - - - - - -
01/11:00pm 17.4 W 4 6 1021.5 - 0.0 - - - - - - -
01/10:30pm 17.5 W 5 7 1021.6 - 0.0 - - - - - - -
01/10:00pm 17.5 WSW 6 8 1021.7 - 0.0 - - - - - - -
01/09:30pm 17.6 WSW 6 8 1021.6 - 0.0 - - - - - - -
01/09:00pm 17.8 WSW 6 7 1021.2 - 0.0 - - - - - - -
01/08:30pm 18.1 W 4 7 1021.1 - 0.0 - - - - - - -
01/08:00pm 18.4 WSW 6 7 1020.9 - 0.0 - - - - - - -
01/07:30pm 18.8 W 4 5 1020.6 - 0.0 - - - - - - -
01/07:00pm 19.8 WSW 4 5 1020.4 - 0.0 - - - - - - -
01/06:30pm 21.3 SSW 4 6 1020.1 - 0.0 - - - - - - -
01/06:00pm 21.5 S 6 8 1019.7 - 0.0 - - - - - - -
01/05:30pm 22.1 S 7 9 1019.6 - 0.0 - - - - - - -
01/05:00pm 22.6 S 6 10 1019.4 - 0.0 - - - - - - -
01/04:30pm 22.8 SSE 8 11 1019.3 - 0.0 - - - - - - -
01/04:00pm 23.5 SSE 7 10 1019.2 - 0.0 - - - - - - -
01/03:30pm 23.8 S 7 11 1019.2 - 0.0 - - - - - - -
01/03:00pm 23.8 SE 10 16 1019.2 - 0.0 - - - - - - -
01/02:30pm 24.3 SSE 9 15 1019.4 - 0.0 - - - - - - -
01/02:00pm 24.3 SSE 10 15 1019.7 - 0.0 - - - - - - -
01/01:30pm 24.2 SSE 9 15 1020.0 - 0.0 - - - - - - -
01/01:00pm 24.2 SSE 9 15 1020.4 - 0.0 - - - - - - -
01/12:30pm 23.5 SSE 9 13 1021.0 - 0.0 - - - - - - -
01/12:00pm 23.4 S 9 17 1021.1 - 0.0 - - - - - - -
01/11:30am 23.5 S 9 15 1021.7 - 0.0 - - - - - - -
01/11:00am 23.4 SSE 7 12 1021.9 - 0.0 - - - - - - -
01/10:30am 23.1 S 7 12 1022.2 - 0.0 - - - - - - -
01/10:00am 22.3 S 6 12 1022.2 - 0.0 - - - - - - -
01/09:30am 23.2 S 7 11 1022.3 - 0.0 - - - - - - -
01/09:00am 22.4 S 7 11 1022.0 - 0.8 - - - - - - -
01/08:30am 21.7 SSW 7 10 1021.9 - 0.8 - - - - - - -
01/08:00am 20.8 SSW 8 13 1021.6 - 0.8 - - - - - - -
01/07:30am 20.1 SSW 6 9 1021.3 - 0.8 - - - - - - -
01/07:00am 20.6 SSW 7 12 1021.0 - 0.8 - - - - - - -
01/06:30am 20.6 SSW 7 11 1020.8 - 0.8 - - - - - - -
01/06:00am 20.5 SSW 7 10 1020.4 - 0.8 - - - - - - -
01/05:30am 20.8 S 8 13 1020.3 - 0.8 - - - - - - -
01/05:00am 20.7 SSW 7 11 1020.3 - 0.8 - - - - - - -
01/04:30am 20.8 SSW 8 13 1020.2 - 0.8 - - - - - - -
01/04:00am 20.8 SSW 7 12 1020.2 - 0.8 - - - - - - -
01/03:30am 20.9 S 8 11 1020.4 - 0.8 - - - - - - -
01/03:00am 21.2 SSW 7 12 1020.3 - 0.8 - - - - - - -
01/02:30am 21.4 SSW 8 14 1020.4 - 0.8 - - - - - - -
01/02:00am 21.3 SSW 7 12 1020.6 - 0.8 - - - - - - -
01/01:30am 21.3 S 8 13 1020.8 - 0.8 - - - - - - -
01/01:00am 21.2 SSW 6 9 1020.9 - 0.8 - - - - - - -
01/12:30am 21.4 S 8 12 1021.0 - 0.8 - - - - - - -
01/12:00am 21.6 SSW 8 13 1021.0 - 0.8 - - - - - - -
 
Date/Time
EST
Temp

°C
Wind Pressure Rain
since 9am
mm
Weather Cloud Vis
km
Sea
Height
m
Swell
Dir
 
Speed
knots
Gust
knots
hPa Trend Height
m
Period
s
Dir
30/11:30pm 21.7 S 7 11 1021.3 - 0.8 - - - - - - -
30/11:00pm 21.7 SSW 8 11 1021.5 - 0.8 - - - - - - -
30/10:30pm 21.7 S 8 12 1021.6 - 0.8 - - - - - - -
30/10:00pm 21.7 S 7 12 1021.7 - 0.8 - - - - - - -
30/09:30pm 21.6 S 6 11 1021.6 - 0.8 - - - - - - -
30/09:00pm 21.6 S 6 8 1021.2 - 0.8 - - - - - - -
30/08:30pm 21.7 S 6 9 1021.1 - 0.8 - - - - - - -
30/08:00pm 22.0 SSW 8 14 1020.9 - 0.8 - - - - - - -
30/07:30pm 22.1 S 8 12 1020.5 - 0.8 - - - - - - -
30/07:00pm 22.1 S 9 13 1020.2 - 0.8 - - - - - - -
30/06:30pm 22.1 S 9 16 1019.9 - 0.8 - - - - - - -
30/06:00pm 22.2 S 7 11 1019.6 - 0.8 - - - - - - -
30/05:30pm 22.5 S 6 9 1019.4 - 0.8 - - - - - - -
30/05:00pm 23.1 S 6 11 1019.1 - 0.8 - - - - - - -
30/04:30pm 23.4 SSE 8 11 1018.8 - 0.8 - - - - - - -
30/04:00pm 23.9 S 8 13 1018.8 - 0.8 - - - - - - -
30/03:30pm 24.2 SSE 9 13 1018.8 - 0.8 - - - - - - -
30/03:00pm 24.3 SSE 9 14 1018.8 - 0.8 - - - - - - -
30/02:30pm 24.8 SE 11 15 1018.9 - 0.8 - - - - - - -
30/02:00pm 24.1 SE 10 15 1019.1 - 0.8 - - - - - - -
30/01:30pm 24.6 SE 9 16 1019.3 - 0.8 - - - - - - -
30/01:00pm 24.1 SSE 11 16 1019.7 - 0.8 - - - - - - -
30/12:30pm 24.8 SE 12 17 1020.0 - 0.8 - - - - - - -
30/12:00pm 24.3 SE 9 14 1020.2 - 0.8 - - - - - - -
30/11:30am 24.5 SE 9 14 1020.6 - 0.8 - - - - - - -
30/11:00am 24.3 SE 9 16 1020.8 - 0.8 - - - - - - -
30/10:30am 22.4 CALM 0 2 1021.0 - 0.8 - - - - - - -
30/10:00am 21.9 WNW 1 5 1021.1 - 0.8 - - - - - - -
30/09:30am 22.0 CALM 0 3 1021.2 - 0.2 - - - - - - -
30/09:00am 21.7 W 3 7 1021.0 - 102.4 - - - - - - -
30/08:30am 21.5 S 4 7 1020.5 - 102.4 - - - - - - -
30/08:00am 21.4 S 7 10 1020.1 - 102.4 - - - - - - -
30/07:30am 21.2 S 6 12 1019.7 - 102.4 - - - - - - -
30/07:00am 21.2 S 6 10 1019.2 - 102.4 - - - - - - -
30/06:30am 20.5 S 7 11 1018.8 - 102.4 - - - - - - -
30/06:00am 20.7 SSE 7 11 1018.6 - 101.8 - - - - - - -
30/05:30am 20.6 SSE 6 12 1018.3 - 99.4 - - - - - - -
30/05:00am 20.9 S 8 14 1018.3 - 88.6 - - - - - - -
30/04:30am 20.9 S 7 12 1018.2 - 87.2 - - - - - - -
30/04:00am 21.2 SSE 8 14 1018.1 - 84.8 - - - - - - -
30/03:30am 21.3 S 8 13 1018.1 - 84.4 - - - - - - -
30/03:00am 21.4 S 8 12 1018.0 - 83.2 - - - - - - -
30/02:30am 21.6 S 8 14 1018.4 - 83.2 - - - - - - -
30/02:00am 21.4 S 8 15 1018.4 - 83.2 - - - - - - -
30/01:30am 21.6 SSE 11 17 1018.6 - 83.0 - - - - - - -
30/01:00am 21.6 SSE 10 17 1018.8 - 83.0 - - - - - - -
30/12:30am 21.7 SSE 7 13 1018.6 - 81.6 - - - - - - -
30/12:00am 21.5 SE 7 13 1018.6 - 81.4 - - - - - - -
 
Date/Time
EST
Temp

°C
Wind Pressure Rain
since 9am
mm
Weather Cloud Vis
km
Sea
Height
m
Swell
Dir
 
Speed
knots
Gust
knots
hPa Trend Height
m
Period
s
Dir
29/11:30pm 21.6 SSE 6 9 1019.0 - 74.2 - - - - - - -
29/11:00pm 21.5 SSE 8 14 1019.4 - 73.8 - - - - - - -
29/10:30pm 21.3 SE 5 10 1019.4 - 73.6 - - - - - - -
29/10:00pm 20.5 SSE 6 10 1019.8 - 72.8 - - - - - - -
29/09:30pm 20.2 SE 4 7 1019.8 - 69.2 - - - - - - -
29/09:00pm 20.2 E 5 7 1019.6 - 67.0 - - - - - - -
29/08:30pm 20.3 E 6 10 1019.6 - 66.0 - - - - - - -
29/08:00pm 20.5 ENE 6 10 1019.7 - 62.4 - - - - - - -
29/07:30pm 20.7 S 5 9 1018.9 - 55.4 - - - - - - -
29/07:00pm 20.3 SSE 5 8 1019.1 - 55.4 - - - - - - -
29/06:30pm 20.6 ESE 9 15 1018.8 - 55.4 - - - - - - -
29/06:00pm 20.7 ESE 10 18 1018.6 - 55.2 - - - - - - -
29/05:30pm 20.4 SSE 6 9 1018.2 - 50.2 - - - - - - -
29/05:00pm 20.6 SE 13 20 1018.2 - 49.2 - - - - - - -
29/04:30pm 21.2 ESE 9 16 1017.9 - 40.6 - - - - - - -
29/04:00pm 21.2 ESE 7 11 1017.6 - 37.2 - - - - - - -
29/03:30pm 21.0 ESE 7 12 1017.8 - 30.2 - - - - - - -
29/03:00pm 20.9 ESE 7 11 1017.8 - 28.0 - - - - - - -
29/02:30pm 21.6 S 8 13 1017.9 - 18.6 - - - - - - -
29/02:00pm 21.7 SSE 11 17 1018.2 - 14.8 - - - - - - -

Other Formats:

Comma delimited format used in spreadsheet applications
http://www.bom.gov.au/fwo/IDQ60701/IDQ60701.95292.axf

JavaScript Object Notation format (JSON) in row-major order
http://www.bom.gov.au/fwo/IDQ60701/IDQ60701.95292.json